Time;durP1;ratioP1;P1;durP2;ratioP2;P2;SDS_P1;SDS_P2;PMS_P1;PMS_P2;Temp;Humidity;BMP_temperature;BMP_pressure;BME280_temperature;BME280_humidity;BME280_pressure;Samples;Min_cycle;Max_cycle;Signal;HPM_P1;HPM_P2
2022/11/16 00:00:20;;;;;;;6.77;4.17;;;11.30;99.90;;;;;;6156105;23;20164;-46
2022/11/16 00:02:47;;;;;;;4.50;3.50;;;11.30;99.90;;;;;;6156826;23;20233;-46
2022/11/16 00:05:13;;;;;;;5.10;3.60;;;11.30;99.90;;;;;;6156054;23;20192;-45
2022/11/16 00:07:38;;;;;;;4.57;3.37;;;11.30;99.90;;;;;;6156665;23;20268;-47
2022/11/16 00:10:04;;;;;;;6.53;3.50;;;11.30;99.90;;;;;;6156444;23;20193;-45
2022/11/16 00:12:30;;;;;;;4.77;3.73;;;11.30;99.90;;;;;;6156016;23;20209;-44
2022/11/16 00:14:55;;;;;;;6.83;4.13;;;11.30;99.90;;;;;;6157531;23;20164;-50
2022/11/16 00:17:21;;;;;;;6.20;3.60;;;11.30;99.90;;;;;;6157654;23;20215;-49
2022/11/16 00:19:47;;;;;;;8.47;3.80;;;11.30;99.90;;;;;;6156009;23;20217;-48
2022/11/16 00:22:12;;;;;;;4.27;3.50;;;11.30;99.90;;;;;;6156328;23;20157;-49
2022/11/16 00:24:38;;;;;;;4.70;3.43;;;11.30;99.90;;;;;;6156285;23;20525;-50
2022/11/16 00:27:03;;;;;;;4.63;3.57;;;11.30;99.90;;;;;;6156195;23;20169;-48
2022/11/16 00:29:29;;;;;;;5.00;2.80;;;11.30;99.90;;;;;;6155873;23;20169;-49
2022/11/16 00:31:55;;;;;;;2.67;2.27;;;11.30;99.90;;;;;;6156274;23;20163;-50
2022/11/16 00:34:22;;;;;;;5.07;3.37;;;11.30;99.90;;;;;;6156262;23;20153;-49
2022/11/16 00:36:47;;;;;;;5.40;3.33;;;12.10;99.90;;;;;;6156698;23;20157;-48
2022/11/16 00:39:14;;;;;;;5.13;3.53;;;11.30;99.90;;;;;;6157874;23;20198;-50
2022/11/16 00:41:41;;;;;;;4.67;3.50;;;11.30;99.90;;;;;;6157933;23;20207;-48
2022/11/16 00:44:07;;;;;;;8.43;3.97;;;11.30;99.90;;;;;;6158000;23;20152;-47
2022/11/16 00:46:33;;;;;;;6.33;4.23;;;11.30;99.90;;;;;;6157998;23;20273;-47
2022/11/16 00:48:58;;;;;;;6.93;3.90;;;11.30;99.90;;;;;;6157828;23;20173;-48
2022/11/16 00:51:24;;;;;;;3.80;2.83;;;11.30;99.90;;;;;;6158196;23;20216;-48
2022/11/16 00:53:49;;;;;;;6.00;3.67;;;11.20;99.90;;;;;;6157885;23;20492;-49
2022/11/16 00:56:15;;;;;;;5.57;3.37;;;11.20;99.90;;;;;;6157845;23;20157;-48
2022/11/16 00:58:40;;;;;;;3.87;3.27;;;11.20;99.90;;;;;;6157621;23;20185;-49
2022/11/16 01:01:08;;;;;;;4.73;3.07;;;11.30;99.90;;;;;;6158127;23;20161;-48
2022/11/16 01:03:34;;;;;;;9.57;3.47;;;11.30;99.90;;;;;;6157827;23;20176;-49
2022/11/16 01:06:06;;;;;;;4.30;2.90;;;11.20;99.90;;;;;;6158006;23;20145;-50
2022/11/16 01:08:33;;;;;;;4.87;3.60;;;11.20;99.90;;;;;;6158374;23;20177;-50
2022/11/16 01:12:07;;;;;;;4.80;3.87;;;11.30;99.90;;;;;;6132130;23;20187;-50
2022/11/16 01:13:45;;;;;;;7.53;3.33;;;11.30;99.90;;;;;;6157375;23;20666;-51
2022/11/16 01:16:15;;;;;;;5.97;3.50;;;11.20;99.90;;;;;;6158099;23;20169;-49
2022/11/16 01:18:42;;;;;;;5.43;3.67;;;11.20;99.90;;;;;;6157730;23;20202;-49
2022/11/16 01:21:07;;;;;;;3.60;2.90;;;11.20;99.90;;;;;;6131436;23;20165;-50
2022/11/16 01:23:33;;;;;;;4.10;3.20;;;11.20;99.90;;;;;;6157615;23;20627;-50
2022/11/16 01:26:01;;;;;;;4.57;3.53;;;12.00;99.90;;;;;;6157948;23;20154;-49
2022/11/16 01:28:28;;;;;;;4.53;3.07;;;11.20;99.90;;;;;;6157558;23;20177;-50
2022/11/16 01:30:54;;;;;;;4.47;2.80;;;11.20;99.90;;;;;;6158076;23;20162;-48
2022/11/16 01:33:20;;;;;;;3.80;3.13;;;11.20;99.90;;;;;;6157858;23;20168;-48
2022/11/16 01:35:46;;;;;;;5.37;3.47;;;11.20;99.90;;;;;;6157781;23;20146;-49
2022/11/16 01:38:11;;;;;;;5.57;3.53;;;11.20;99.90;;;;;;6157176;23;20301;-48
2022/11/16 01:40:37;;;;;;;3.53;3.00;;;11.20;99.90;;;;;;6157390;23;20158;-48
2022/11/16 01:43:04;;;;;;;5.17;3.37;;;11.20;99.90;;;;;;6131258;23;20164;-49
2022/11/16 01:45:42;;;;;;;5.40;2.73;;;11.20;99.90;;;;;;6157658;23;20158;-49
2022/11/16 01:48:12;;;;;;;5.00;3.40;;;11.20;99.90;;;;;;6156963;23;20181;-49
2022/11/16 01:50:38;;;;;;;3.43;2.70;;;11.20;99.90;;;;;;6157291;23;20162;-50
2022/11/16 01:53:05;;;;;;;3.13;2.73;;;11.20;99.90;;;;;;6157361;23;20162;-50
2022/11/16 01:55:34;;;;;;;3.63;2.70;;;11.20;99.90;;;;;;6157268;23;20158;-50
2022/11/16 01:58:00;;;;;;;4.70;2.87;;;11.20;99.90;;;;;;6157125;23;20196;-51
2022/11/16 02:00:26;;;;;;;5.73;3.37;;;11.20;99.90;;;;;;6157965;23;20157;-50
2022/11/16 02:02:52;;;;;;;3.80;3.33;;;11.20;99.90;;;;;;6157578;23;20212;-50
2022/11/16 02:05:21;;;;;;;4.77;3.53;;;11.20;99.90;;;;;;6157474;23;20248;-48
2022/11/16 02:11:07;;;;;;;3.67;3.27;;;11.20;99.90;;;;;;6157272;23;20488;-49
2022/11/16 02:14:03;;;;;;;6.73;3.57;;;11.20;99.90;;;;;;6157194;23;20141;-51
2022/11/16 02:16:41;;;;;;;3.97;3.10;;;11.20;99.90;;;;;;6157424;23;20573;-50
2022/11/16 02:19:48;;;;;;;5.53;2.90;;;11.20;99.90;;;;;;6157213;23;20185;-50
2022/11/16 02:22:25;;;;;;;5.90;3.13;;;11.20;99.90;;;;;;6038352;23;20164;-50
2022/11/16 02:25:20;;;;;;;4.77;2.90;;;11.20;99.90;;;;;;6141710;23;20469;-50
2022/11/16 02:28:02;;;;;;;4.43;2.73;;;11.20;99.90;;;;;;6028532;23;20184;-50
2022/11/16 02:30:27;;;;;;;5.00;3.20;;;11.20;99.90;;;;;;6157303;23;20150;-49
2022/11/16 02:33:08;;;;;;;3.20;2.90;;;11.70;99.90;;;;;;6157251;23;20675;-51
2022/11/16 02:35:47;;;;;;;4.50;3.10;;;11.20;99.90;;;;;;6157190;23;20153;-49
2022/11/16 02:38:19;;;;;;;3.77;2.93;;;11.20;99.90;;;;;;6156811;23;20189;-50
2022/11/16 02:40:49;;;;;;;3.77;2.97;;;11.20;99.90;;;;;;6157260;23;20153;-50
2022/11/16 02:43:20;;;;;;;5.10;3.23;;;11.20;99.90;;;;;;6157022;23;20144;-50
2022/11/16 02:45:49;;;;;;;5.03;3.70;;;11.20;99.90;;;;;;6160235;23;20195;-49
2022/11/16 02:48:30;;;;;;;5.43;3.30;;;11.20;99.90;;;;;;6130748;23;20184;-48
2022/11/16 02:50:56;;;;;;;5.63;3.40;;;11.20;99.90;;;;;;6157152;23;20150;-50
2022/11/16 02:53:23;;;;;;;3.13;2.60;;;11.20;99.90;;;;;;6157100;23;20185;-48
2022/11/16 02:55:49;;;;;;;5.53;3.20;;;11.20;99.90;;;;;;6155230;23;20485;-47
2022/11/16 02:58:21;;;;;;;4.07;3.20;;;11.20;99.90;;;;;;6156495;23;20192;-48
2022/11/16 03:01:02;;;;;;;5.00;3.27;;;11.10;99.90;;;;;;6157348;23;20577;-48
2022/11/16 03:03:37;;;;;;;4.20;3.30;;;11.10;99.90;;;;;;6156837;23;20505;-50
2022/11/16 03:06:16;;;;;;;4.73;3.30;;;11.10;99.90;;;;;;6156549;23;20626;-49
2022/11/16 03:08:46;;;;;;;4.00;3.20;;;11.10;99.90;;;;;;6156737;23;20173;-51
2022/11/16 03:14:06;;;;;;;4.20;2.93;;;11.10;99.90;;;;;;6156922;23;20631;-49
2022/11/16 03:16:39;;;;;;;4.17;2.90;;;11.10;99.90;;;;;;6130430;23;20153;-49
2022/11/16 03:19:09;;;;;;;5.03;3.23;;;11.00;99.90;;;;;;6157634;23;20193;-49
2022/11/16 03:21:53;;;;;;;4.73;3.27;;;11.10;99.90;;;;;;6156421;23;20153;-50
2022/11/16 03:24:19;;;;;;;3.53;3.10;;;11.10;99.90;;;;;;6156439;23;20225;-47
2022/11/16 03:27:28;;;;;;;3.90;3.10;;;11.10;99.90;;;;;;6156684;23;20149;-49
2022/11/16 03:30:11;;;;;;;4.53;3.47;;;11.00;99.90;;;;;;6143470;23;20480;-47
2022/11/16 03:33:04;;;;;;;5.70;2.80;;;11.00;99.90;;;;;;6156720;23;20294;-48
2022/11/16 03:35:39;;;;;;;2.30;1.63;;;11.00;99.90;;;;;;6156697;23;20138;-47
2022/11/16 03:38:06;;;;;;;4.30;1.70;;;11.00;99.90;;;;;;6156439;23;20192;-49
2022/11/16 03:40:33;;;;;;;3.40;1.80;;;11.00;99.90;;;;;;6156291;23;20670;-50
2022/11/16 03:43:01;;;;;;;4.20;1.93;;;11.00;99.90;;;;;;6156418;23;20470;-50
2022/11/16 03:45:29;;;;;;;3.20;1.80;;;11.00;99.90;;;;;;6156381;23;20160;-50
2022/11/16 03:47:54;;;;;;;3.77;1.60;;;11.00;99.90;;;;;;6156246;23;20559;-50
2022/11/16 03:50:20;;;;;;;2.37;1.70;;;11.00;99.90;;;;;;6156360;23;20153;-49
2022/11/16 03:52:46;;;;;;;2.47;1.87;;;11.00;99.90;;;;;;6156506;23;20165;-50
2022/11/16 03:55:11;;;;;;;3.80;1.47;;;11.00;99.90;;;;;;6156227;23;20153;-51
2022/11/16 03:57:37;;;;;;;3.17;1.10;;;11.00;99.90;;;;;;6156056;23;20186;-51
2022/11/16 04:00:05;;;;;;;1.40;1.20;;;11.00;99.90;;;;;;6156234;23;20160;-51
2022/11/16 04:02:30;;;;;;;2.37;1.20;;;11.00;99.90;;;;;;6156521;23;20164;-48
2022/11/16 04:24:30;;;;;;;1.10;0.77;;;10.80;99.90;;;;;;6156420;23;20144;-51
2022/11/16 04:29:46;;;;;;;2.40;0.67;;;10.80;99.90;;;;;;6156356;23;20232;-50
2022/11/16 04:37:51;;;;;;;1.07;0.80;;;10.80;99.90;;;;;;6156177;23;20252;-48
2022/11/16 04:40:19;;;;;;;0.67;0.60;;;10.70;99.90;;;;;;6129886;23;20539;-49
2022/11/16 04:42:56;;;;;;;1.43;0.77;;;10.70;99.90;;;;;;6156057;23;20491;-49
2022/11/16 04:48:06;;;;;;;2.43;0.93;;;10.70;99.90;;;;;;6156114;23;20261;-48
2022/11/16 04:50:32;;;;;;;2.10;0.70;;;10.70;99.90;;;;;;6156338;23;20165;-50
2022/11/16 04:52:58;;;;;;;2.90;0.80;;;10.70;99.90;;;;;;6155870;23;20157;-50
2022/11/16 04:55:24;;;;;;;0.80;0.80;;;10.70;99.90;;;;;;6156150;23;20165;-50
2022/11/16 04:57:50;;;;;;;0.97;0.77;;;10.70;99.90;;;;;;6155987;23;20207;-50
2022/11/16 05:00:15;;;;;;;1.60;0.97;;;10.70;99.90;;;;;;6155845;23;20145;-51
2022/11/16 05:02:41;;;;;;;2.23;1.17;;;10.60;99.90;;;;;;6156535;23;20177;-46
2022/11/16 05:05:07;;;;;;;1.60;0.80;;;10.60;99.90;;;;;;6155862;23;20530;-43
2022/11/16 05:07:33;;;;;;;1.13;1.00;;;10.60;99.90;;;;;;6155819;23;20532;-45
2022/11/16 05:09:59;;;;;;;2.23;1.00;;;10.60;99.90;;;;;;6156098;23;20204;-47
2022/11/16 05:12:26;;;;;;;1.43;0.77;;;10.60;99.90;;;;;;6155888;23;20184;-46
2022/11/16 05:14:54;;;;;;;2.97;1.50;;;10.60;99.90;;;;;;6156259;23;20248;-46
2022/11/16 05:17:20;;;;;;;2.90;1.20;;;10.60;99.90;;;;;;6155544;23;20644;-44
2022/11/16 05:22:30;;;;;;;3.50;1.37;;;10.60;99.90;;;;;;6156399;23;20188;-43
2022/11/16 05:24:56;;;;;;;3.13;1.57;;;10.60;99.90;;;;;;6157622;23;20600;-46
2022/11/16 05:27:22;;;;;;;2.73;1.40;;;10.50;99.90;;;;;;6157567;23;20162;-44
2022/11/16 05:29:48;;;;;;;4.13;1.70;;;10.50;99.90;;;;;;6157600;23;20181;-47
2022/11/16 05:32:15;;;;;;;2.87;1.27;;;10.40;99.90;;;;;;6157835;23;20172;-45
2022/11/16 05:34:41;;;;;;;3.17;1.43;;;10.40;99.90;;;;;;6157581;23;20157;-45
2022/11/16 05:37:06;;;;;;;3.67;1.67;;;10.40;99.90;;;;;;6157702;23;20158;-45
2022/11/16 05:39:32;;;;;;;3.13;1.40;;;10.30;99.90;;;;;;6157547;23;20695;-44
2022/11/16 05:41:58;;;;;;;2.47;1.10;;;10.30;99.90;;;;;;6157768;23;20150;-43
2022/11/16 05:44:23;;;;;;;2.43;1.27;;;10.30;99.90;;;;;;6158103;23;20232;-45
2022/11/16 05:46:49;;;;;;;4.57;1.40;;;10.20;99.90;;;;;;6157432;23;20153;-45
2022/11/16 05:49:15;;;;;;;6.40;1.50;;;10.10;99.90;;;;;;6131258;23;20512;-44
2022/11/16 05:51:43;;;;;;;4.40;1.60;;;10.10;99.90;;;;;;6131381;23;20161;-42
2022/11/16 05:54:17;;;;;;;5.73;1.47;;;10.10;99.90;;;;;;6157399;23;20156;-44
2022/11/16 05:56:43;;;;;;;6.00;1.70;;;10.00;99.90;;;;;;6157906;23;20149;-45
2022/11/16 05:59:15;;;;;;;4.67;1.70;;;10.00;99.90;;;;;;6157883;23;20219;-43
2022/11/16 06:01:40;;;;;;;2.67;1.30;;;9.90;99.90;;;;;;6157781;23;20200;-43
2022/11/16 06:04:06;;;;;;;3.33;1.20;;;9.90;99.90;;;;;;6157682;23;20559;-45
2022/11/16 06:06:31;;;;;;;4.77;1.17;;;9.90;99.90;;;;;;6157357;23;20157;-44
2022/11/16 06:08:57;;;;;;;3.00;1.50;;;9.80;99.90;;;;;;6157650;23;20232;-45
2022/11/16 06:11:23;;;;;;;5.03;1.70;;;9.80;99.90;;;;;;6157318;23;20157;-45
2022/11/16 06:13:49;;;;;;;3.93;1.30;;;9.70;99.90;;;;;;6157634;23;20159;-47
2022/11/16 06:16:15;;;;;;;3.87;1.73;;;9.60;99.90;;;;;;6157594;23;20171;-43
2022/11/16 06:18:44;;;;;;;4.70;1.80;;;9.60;99.90;;;;;;6157688;23;20235;-45
2022/11/16 06:21:11;;;;;;;3.57;1.33;;;9.50;99.90;;;;;;6157149;23;20467;-44
2022/11/16 06:23:37;;;;;;;3.73;1.37;;;9.40;99.90;;;;;;6130969;23;20240;-46
2022/11/16 06:26:03;;;;;;;3.63;1.40;;;9.40;99.90;;;;;;6157396;23;20153;-45
2022/11/16 06:28:29;;;;;;;3.63;1.37;;;9.30;99.90;;;;;;6130968;23;20181;-47
2022/11/16 06:30:55;;;;;;;3.57;1.27;;;9.30;99.90;;;;;;6158089;23;20164;-44
2022/11/16 06:33:20;;;;;;;2.90;1.13;;;9.30;99.90;;;;;;6157375;23;20164;-44
2022/11/16 06:35:46;;;;;;;5.50;1.63;;;9.20;99.90;;;;;;6157123;23;20154;-43
2022/11/16 06:38:17;;;;;;;5.23;1.50;;;9.10;99.90;;;;;;6156845;23;20195;-44
2022/11/16 06:40:55;;;;;;;3.57;1.23;;;9.10;99.90;;;;;;6157494;23;20141;-45
2022/11/16 06:43:21;;;;;;;5.40;1.43;;;9.10;99.90;;;;;;6157363;23;20164;-43
2022/11/16 06:45:49;;;;;;;4.63;1.53;;;9.00;99.90;;;;;;6157034;23;20154;-44
2022/11/16 06:48:15;;;;;;;2.73;1.30;;;9.00;99.90;;;;;;6157089;23;20515;-44
2022/11/16 06:50:41;;;;;;;5.53;1.80;;;8.90;99.90;;;;;;6157030;23;20441;-45
2022/11/16 06:53:06;;;;;;;5.37;1.70;;;8.90;99.90;;;;;;6157156;23;20165;-44
2022/11/16 06:55:32;;;;;;;6.13;1.50;;;8.80;99.90;;;;;;6157022;23;20168;-44
2022/11/16 06:57:57;;;;;;;12.63;2.50;;;8.80;99.90;;;;;;6157271;23;20193;-43
2022/11/16 07:00:23;;;;;;;8.10;1.57;;;8.70;99.90;;;;;;6156930;23;20156;-46
2022/11/16 07:02:49;;;;;;;5.63;1.97;;;8.60;99.90;;;;;;6157161;23;20521;-45
2022/11/16 07:05:14;;;;;;;6.47;1.50;;;8.60;99.90;;;;;;6156515;23;20237;-43
2022/11/16 07:07:40;;;;;;;4.23;1.47;;;8.60;99.90;;;;;;6156977;23;20271;-44
2022/11/16 07:10:06;;;;;;;6.33;1.60;;;8.60;99.90;;;;;;6156657;23;20598;-44
2022/11/16 07:12:31;;;;;;;5.97;1.80;;;8.50;99.90;;;;;;6156739;23;20618;-45
2022/11/16 07:14:57;;;;;;;3.27;1.20;;;8.50;99.90;;;;;;6156915;23;20176;-44
2022/11/16 07:17:23;;;;;;;6.90;1.70;;;8.50;99.90;;;;;;6157092;23;20210;-45
2022/11/16 07:19:48;;;;;;;7.63;1.70;;;8.40;99.90;;;;;;6156559;23;20202;-46
2022/11/16 07:22:14;;;;;;;6.33;1.30;;;8.40;99.90;;;;;;6156884;23;20164;-45
2022/11/16 07:24:39;;;;;;;5.47;1.10;;;8.40;99.90;;;;;;6156616;23;20151;-44
2022/11/16 07:27:07;;;;;;;4.63;1.60;;;8.40;99.90;;;;;;6157064;23;20152;-45
2022/11/16 07:29:32;;;;;;;3.53;1.00;;;8.30;99.90;;;;;;6157000;23;20178;-44
2022/11/16 07:31:58;;;;;;;6.60;1.73;;;8.30;99.90;;;;;;6156698;23;20142;-43
2022/11/16 07:34:24;;;;;;;4.67;1.40;;;8.30;99.90;;;;;;6156894;23;20229;-44
2022/11/16 07:36:49;;;;;;;2.03;1.30;;;8.30;99.90;;;;;;6157081;23;20150;-41
2022/11/16 07:39:15;;;;;;;3.87;1.27;;;8.20;99.90;;;;;;6156421;23;20197;-43
2022/11/16 07:41:44;;;;;;;6.73;1.60;;;8.20;99.90;;;;;;6156541;23;20154;-44
2022/11/16 07:44:09;;;;;;;4.30;1.57;;;8.10;99.90;;;;;;6156489;23;20152;-44
2022/11/16 07:46:35;;;;;;;8.20;1.40;;;8.10;99.90;;;;;;6155978;23;20155;-44
2022/11/16 07:49:01;;;;;;;4.40;1.20;;;8.10;99.90;;;;;;6156231;23;20231;-45
2022/11/16 07:51:26;;;;;;;4.40;1.67;;;8.10;99.90;;;;;;6156393;23;20162;-46
2022/11/16 07:53:56;;;;;;;2.77;1.23;;;8.00;99.90;;;;;;6156583;23;20171;-43
2022/11/16 07:56:22;;;;;;;5.57;2.40;;;8.00;99.90;;;;;;6156337;23;20155;-45
2022/11/16 07:58:48;;;;;;;6.03;1.40;;;8.00;99.90;;;;;;6156625;23;20198;-43
2022/11/16 08:01:15;;;;;;;4.30;1.40;;;7.90;99.90;;;;;;6131811;23;20504;-44
2022/11/16 08:03:42;;;;;;;8.07;1.40;;;8.00;99.90;;;;;;6156410;23;20582;-46
2022/11/16 08:06:16;;;;;;;7.53;1.47;;;8.00;99.90;;;;;;6156677;23;20152;-44
2022/11/16 08:08:42;;;;;;;4.40;1.50;;;8.00;99.90;;;;;;6156315;23;20181;-45
2022/11/16 08:11:09;;;;;;;7.60;1.60;;;8.00;99.90;;;;;;6156658;23;20162;-45
2022/11/16 08:13:37;;;;;;;8.97;1.93;;;8.10;99.90;;;;;;6156107;23;20161;-44
2022/11/16 08:16:06;;;;;;;6.10;1.33;;;8.20;99.90;;;;;;6156653;23;20158;-44
2022/11/16 08:18:32;;;;;;;5.30;1.60;;;8.20;99.90;;;;;;6156381;23;20200;-42
2022/11/16 08:20:58;;;;;;;8.30;2.03;;;8.30;99.90;;;;;;6156349;23;20158;-46
2022/11/16 08:23:24;;;;;;;4.50;1.60;;;8.40;99.90;;;;;;6156000;23;20154;-43
2022/11/16 08:25:50;;;;;;;10.00;2.33;;;8.50;99.90;;;;;;6129860;23;20491;-46
2022/11/16 08:28:16;;;;;;;8.17;1.70;;;8.50;99.90;;;;;;6156241;23;20183;-42
2022/11/16 08:30:41;;;;;;;5.43;1.30;;;8.60;99.90;;;;;;6156307;23;20654;-44
2022/11/16 08:33:08;;;;;;;6.87;1.43;;;8.80;99.90;;;;;;6157349;23;20282;-44
2022/11/16 08:35:35;;;;;;;5.17;1.23;;;8.90;99.90;;;;;;6156362;23;20216;-43
2022/11/16 08:38:00;;;;;;;5.83;1.47;;;9.10;99.90;;;;;;6156218;23;20200;-46
2022/11/16 08:40:27;;;;;;;5.10;1.53;;;9.20;99.90;;;;;;6156282;23;20605;-43
2022/11/16 08:42:55;;;;;;;8.83;1.73;;;9.30;99.90;;;;;;6156183;23;20196;-41
2022/11/16 08:45:22;;;;;;;8.37;1.60;;;9.40;99.90;;;;;;6155995;23;20160;-43
2022/11/16 08:47:48;;;;;;;12.00;1.83;;;9.50;99.90;;;;;;6156153;23;20210;-41
2022/11/16 08:50:15;;;;;;;9.20;2.50;;;9.50;99.90;;;;;;6156670;23;20160;-44
2022/11/16 08:52:40;;;;;;;11.27;3.30;;;9.60;99.90;;;;;;6161423;23;20165;-50
2022/11/16 08:55:06;;;;;;;7.23;3.40;;;9.50;99.90;;;;;;6161754;23;20236;-50
2022/11/16 08:57:32;;;;;;;7.87;3.17;;;9.70;99.90;;;;;;6161511;23;20258;-50
2022/11/16 08:59:57;;;;;;;8.30;3.63;;;9.80;99.90;;;;;;6136333;23;20160;-49
2022/11/16 09:02:26;;;;;;;8.80;3.60;;;9.80;99.90;;;;;;6161575;23;20493;-50
2022/11/16 09:04:52;;;;;;;8.67;3.87;;;9.90;99.90;;;;;;6161371;23;20203;-51
2022/11/16 09:07:18;;;;;;;4.13;2.43;;;9.90;99.90;;;;;;6160444;23;20156;-50
2022/11/16 09:09:44;;;;;;;9.70;2.40;;;10.00;99.90;;;;;;6160463;23;20162;-50
2022/11/16 09:12:09;;;;;;;6.57;2.13;;;10.10;99.90;;;;;;6159973;23;20194;-50
2022/11/16 09:14:35;;;;;;;4.23;1.50;;;10.20;99.90;;;;;;6160052;23;20156;-50
2022/11/16 09:17:00;;;;;;;6.33;1.70;;;10.30;99.90;;;;;;6159047;23;20161;-50
2022/11/16 09:19:26;;;;;;;6.93;1.60;;;10.30;99.90;;;;;;6158681;23;20192;-50
2022/11/16 09:21:52;;;;;;;6.57;1.97;;;10.40;99.90;;;;;;6158433;23;20201;-50
2022/11/16 09:24:17;;;;;;;11.10;1.63;;;10.50;99.90;;;;;;6158081;23;20212;-50
2022/11/16 09:26:43;;;;;;;5.13;1.20;;;10.50;99.90;;;;;;6158163;23;20161;-49
2022/11/16 09:29:13;;;;;;;5.37;1.27;;;10.60;99.90;;;;;;6157879;23;20180;-50
2022/11/16 09:31:39;;;;;;;6.17;1.80;;;10.70;99.90;;;;;;6158520;23;20158;-51
2022/11/16 09:34:05;;;;;;;4.13;1.20;;;10.80;99.90;;;;;;6158048;23;20167;-50
2022/11/16 09:36:31;;;;;;;4.93;1.27;;;10.80;99.90;;;;;;6157871;23;20160;-49
2022/11/16 09:38:57;;;;;;;4.33;1.23;;;10.80;99.90;;;;;;6157732;23;20188;-51
2022/11/16 09:41:32;;;;;;;7.10;1.30;;;10.90;99.90;;;;;;6158222;23;20166;-49
2022/11/16 09:44:09;;;;;;;6.03;1.33;;;10.90;99.90;;;;;;6158337;23;20141;-52
2022/11/16 09:46:41;;;;;;;5.93;1.40;;;11.00;99.90;;;;;;6158900;23;20172;-51
2022/11/16 09:49:17;;;;;;;10.57;1.33;;;11.00;99.90;;;;;;6157944;23;20265;-51
2022/11/16 09:51:47;;;;;;;6.23;1.53;;;11.10;99.90;;;;;;6159097;23;20145;-49
2022/11/16 09:54:20;;;;;;;9.50;1.63;;;11.10;99.90;;;;;;6158862;23;20244;-52
2022/11/16 09:56:48;;;;;;;2.37;0.87;;;11.20;99.90;;;;;;6161226;23;20165;-44
2022/11/16 09:59:23;;;;;;;6.87;1.10;;;11.20;99.90;;;;;;6163049;23;20197;-44
2022/11/16 10:02:01;;;;;;;8.57;1.33;;;11.30;99.90;;;;;;6164783;23;20151;-47
2022/11/16 10:04:26;;;;;;;3.90;1.00;;;11.30;99.90;;;;;;6158151;23;20177;-50
2022/11/16 10:06:57;;;;;;;5.63;1.00;;;11.40;99.90;;;;;;6160796;23;20615;-51
2022/11/16 10:09:24;;;;;;;5.50;1.33;;;11.50;99.90;;;;;;6159244;23;20180;-51
2022/11/16 10:12:13;;;;;;;5.37;1.57;;;11.50;99.90;;;;;;6159795;23;20162;-49
2022/11/16 10:15:05;;;;;;;5.77;1.30;;;11.60;99.90;;;;;;6160027;23;20188;-50
2022/11/16 10:18:06;;;;;;;7.20;1.13;;;11.60;99.90;;;;;;6159067;23;20177;-52
2022/11/16 10:21:06;;;;;;;4.93;1.23;;;11.70;99.90;;;;;;6158348;23;20150;-51
2022/11/16 10:23:52;;;;;;;5.77;1.97;;;11.80;99.90;;;;;;6158449;23;20134;-50
2022/11/16 10:26:58;;;;;;;7.67;2.07;;;11.90;99.90;;;;;;6157567;23;20142;-49
2022/11/16 10:29:45;;;;;;;4.20;1.33;;;11.90;99.90;;;;;;6158117;23;20499;-51
2022/11/16 10:32:11;;;;;;;5.60;1.23;;;12.00;99.90;;;;;;6157487;23;20146;-50
2022/11/16 10:34:55;;;;;;;4.30;1.07;;;12.10;99.90;;;;;;6156891;23;20188;-50
2022/11/16 10:37:26;;;;;;;2.67;1.00;;;12.10;99.90;;;;;;6156942;23;20157;-51
2022/11/16 10:39:55;;;;;;;3.30;1.07;;;12.10;99.90;;;;;;6156929;23;20142;-51
2022/11/16 10:42:34;;;;;;;4.07;1.20;;;12.20;99.90;;;;;;6130783;23;20160;-50
2022/11/16 10:45:21;;;;;;;4.73;1.20;;;12.20;99.90;;;;;;6157186;23;20149;-50
2022/11/16 10:48:22;;;;;;;9.13;1.50;;;12.40;99.90;;;;;;6157345;23;20177;-50
2022/11/16 10:50:50;;;;;;;9.93;1.07;;;12.40;99.90;;;;;;6157033;23;20216;-51
2022/11/16 10:53:33;;;;;;;6.87;1.23;;;12.40;99.90;;;;;;6131129;23;20169;-51
2022/11/16 10:56:19;;;;;;;3.40;0.70;;;12.50;99.90;;;;;;6158286;23;20168;-50
2022/11/16 10:58:59;;;;;;;7.37;1.43;;;12.60;99.90;;;;;;6158007;23;20264;-50
2022/11/16 11:01:35;;;;;;;5.03;1.10;;;12.60;99.90;;;;;;6158923;23;20164;-49
2022/11/16 11:04:33;;;;;;;3.77;1.00;;;12.70;99.90;;;;;;6159121;23;20200;-51
2022/11/16 11:07:23;;;;;;;4.93;0.90;;;12.70;99.90;;;;;;6095444;23;20218;-51
2022/11/16 11:09:53;;;;;;;6.90;1.73;;;12.80;99.90;;;;;;6160448;23;20153;-50
2022/11/16 11:12:39;;;;;;;4.37;1.10;;;12.90;99.90;;;;;;6134937;23;20157;-50
2022/11/16 11:15:10;;;;;;;7.47;1.53;;;12.90;99.90;;;;;;6161589;23;20145;-49
2022/11/16 11:17:47;;;;;;;6.20;1.00;;;13.00;99.90;;;;;;6160857;23;20190;-51
2022/11/16 11:20:15;;;;;;;7.97;1.50;;;13.00;99.90;;;;;;6160942;23;20141;-51
2022/11/16 11:22:46;;;;;;;5.03;0.90;;;13.10;99.90;;;;;;6161243;23;20150;-51
2022/11/16 11:25:21;;;;;;;3.70;0.73;;;13.10;99.90;;;;;;6160996;23;20142;-50
2022/11/16 11:27:48;;;;;;;7.63;1.10;;;13.20;99.90;;;;;;6158770;23;20227;-51
2022/11/16 11:30:19;;;;;;;3.40;1.07;;;13.30;99.90;;;;;;6159288;23;20538;-50
2022/11/16 11:32:46;;;;;;;7.57;1.10;;;13.40;99.90;;;;;;6159089;23;20503;-50
2022/11/16 11:35:27;;;;;;;2.73;0.80;;;13.40;99.90;;;;;;6158570;23;20662;-50
2022/11/16 11:37:55;;;;;;;4.13;0.97;;;13.50;99.90;;;;;;6157842;23;20185;-51
2022/11/16 11:40:29;;;;;;;5.70;1.10;;;13.50;99.90;;;;;;6157946;23;20158;-51
2022/11/16 11:43:00;;;;;;;4.33;0.80;;;13.60;99.90;;;;;;6157412;23;20148;-50
2022/11/16 11:45:44;;;;;;;3.50;1.00;;;13.70;99.90;;;;;;6157652;23;20629;-49
2022/11/16 11:48:31;;;;;;;5.73;1.10;;;13.70;99.90;;;;;;6157230;23;20225;-50
2022/11/16 11:50:57;;;;;;;3.17;1.50;;;13.70;99.90;;;;;;6156735;23;20142;-49
2022/11/16 11:53:45;;;;;;;6.13;0.97;;;13.70;99.90;;;;;;6156627;23;20162;-50
2022/11/16 11:56:13;;;;;;;2.63;0.93;;;13.70;99.90;;;;;;6131597;23;20204;-50
2022/11/16 11:58:41;;;;;;;3.37;1.00;;;13.70;99.90;;;;;;6156404;23;20189;-50
2022/11/16 12:01:06;;;;;;;3.60;0.70;;;13.70;99.90;;;;;;6156955;23;20619;-49
2022/11/16 12:03:41;;;;;;;3.03;1.23;;;13.70;99.90;;;;;;6157107;23;20161;-51
2022/11/16 12:06:44;;;;;;;4.30;0.90;;;13.80;99.90;;;;;;6157052;23;20638;-50
2022/11/16 12:09:47;;;;;;;3.47;0.87;;;13.80;99.90;;;;;;6157468;23;20199;-49
2022/11/16 12:12:35;;;;;;;3.67;0.90;;;14.00;99.90;;;;;;6135499;23;20651;-50
2022/11/16 12:15:15;;;;;;;3.90;1.17;;;14.00;99.90;;;;;;6157613;23;20616;-50
2022/11/16 12:17:56;;;;;;;5.03;0.90;;;14.10;99.90;;;;;;6157420;23;20185;-50
2022/11/16 12:21:03;;;;;;;4.43;0.90;;;14.10;99.90;;;;;;6158208;23;20153;-49
2022/11/16 12:23:38;;;;;;;5.93;0.93;;;14.20;99.90;;;;;;6101843;23;20158;-52
2022/11/16 12:26:15;;;;;;;3.83;1.17;;;14.40;99.90;;;;;;6156730;23;20141;-52
2022/11/16 12:28:48;;;;;;;3.43;0.90;;;14.50;99.90;;;;;;6156782;23;20643;-50
2022/11/16 12:31:26;;;;;;;3.97;0.90;;;14.60;99.90;;;;;;6157390;23;20145;-49
2022/11/16 12:34:04;;;;;;;3.97;1.10;;;14.60;99.90;;;;;;6157571;23;20523;-46
2022/11/16 12:36:54;;;;;;;4.23;1.17;;;14.60;99.90;;;;;;6156362;23;20212;-46
2022/11/16 12:39:33;;;;;;;4.67;1.13;;;14.60;99.90;;;;;;6155865;23;20582;-51
2022/11/16 12:42:20;;;;;;;2.07;0.80;;;14.50;99.90;;;;;;6156421;23;20145;-46
2022/11/16 12:45:13;;;;;;;4.33;1.23;;;14.40;99.90;;;;;;6156210;23;20584;-45
2022/11/16 12:47:50;;;;;;;6.10;0.80;;;14.40;99.90;;;;;;6156218;23;20188;-45
2022/11/16 12:50:34;;;;;;;3.07;0.80;;;14.30;99.90;;;;;;6156230;23;20148;-45
2022/11/16 12:53:20;;;;;;;4.40;0.70;;;14.30;99.90;;;;;;6156783;23;20623;-46
2022/11/16 12:55:59;;;;;;;5.20;1.23;;;14.30;99.90;;;;;;6156405;23;20149;-46
2022/11/16 12:58:43;;;;;;;3.80;0.70;;;14.40;99.90;;;;;;6155798;23;20192;-46
2022/11/16 13:01:27;;;;;;;3.87;1.10;;;14.50;99.90;;;;;;6156607;23;20212;-45
2022/11/16 13:04:22;;;;;;;4.27;1.40;;;14.70;99.90;;;;;;6155923;23;20170;-45
2022/11/16 13:06:55;;;;;;;3.10;0.90;;;14.70;99.90;;;;;;6156046;23;20138;-45
2022/11/16 13:09:28;;;;;;;6.77;0.87;;;14.80;99.90;;;;;;6156103;23;20173;-45
2022/11/16 13:12:01;;;;;;;3.57;0.70;;;14.70;99.90;;;;;;6155921;23;20146;-45
2022/11/16 13:14:39;;;;;;;4.87;1.10;;;14.70;99.90;;;;;;6155780;23;20157;-45
2022/11/16 13:17:06;;;;;;;5.67;1.30;;;14.70;99.90;;;;;;6155907;23;20149;-45
2022/11/16 13:19:37;;;;;;;2.87;1.03;;;14.70;99.90;;;;;;6155667;23;20252;-44
2022/11/16 13:22:10;;;;;;;2.90;0.80;;;14.70;99.90;;;;;;6156424;23;20149;-47
2022/11/16 13:24:50;;;;;;;2.07;0.90;;;14.60;99.90;;;;;;6156095;23;20229;-45
2022/11/16 13:27:25;;;;;;;3.33;0.80;;;14.60;99.90;;;;;;6155784;23;20665;-46
2022/11/16 13:30:05;;;;;;;1.60;0.80;;;14.60;99.90;;;;;;6156326;23;20556;-45
2022/11/16 13:32:53;;;;;;;4.70;0.83;;;14.50;99.90;;;;;;6155971;23;20150;-45
2022/11/16 13:35:19;;;;;;;3.57;0.83;;;14.40;99.90;;;;;;6156037;23;20154;-46
2022/11/16 13:37:50;;;;;;;2.97;0.67;;;14.40;99.90;;;;;;6155424;23;20702;-44
2022/11/16 13:40:28;;;;;;;2.53;0.70;;;14.40;99.90;;;;;;6155892;23;20244;-47
2022/11/16 13:43:12;;;;;;;2.20;1.00;;;14.30;99.90;;;;;;6155597;23;20149;-45
2022/11/16 13:45:55;;;;;;;5.00;0.97;;;14.30;99.90;;;;;;6157200;23;20145;-45
2022/11/16 13:48:26;;;;;;;2.30;0.90;;;14.30;99.90;;;;;;6157705;23;20192;-44